createdAt,value
2024-04-11T00:00:42.138Z,101666.44
2024-04-11T00:03:10.679Z,101652.31
2024-04-11T00:05:40.534Z,101665.00
2024-04-11T00:08:07.984Z,101661.53
2024-04-11T00:10:36.427Z,101664.50
2024-04-11T00:13:05.304Z,101659.53
2024-04-11T00:15:32.647Z,101652.50
2024-04-11T00:18:00.756Z,101660.69
2024-04-11T00:20:28.855Z,101656.63
2024-04-11T00:22:56.220Z,101662.03
2024-04-11T00:25:23.563Z,101659.38
2024-04-11T00:27:51.255Z,101666.41
2024-04-11T00:30:18.691Z,101660.91
2024-04-11T00:32:46.311Z,101668.50
2024-04-11T00:35:13.828Z,101668.63
2024-04-11T00:37:41.175Z,101661.69
2024-04-11T00:40:08.947Z,101666.31
2024-04-11T00:42:36.844Z,101667.75
2024-04-11T00:45:06.149Z,101659.00
2024-04-11T00:47:34.872Z,101662.75
2024-04-11T00:50:02.746Z,101661.78
2024-04-11T00:52:30.671Z,101666.97
2024-04-11T00:54:58.094Z,101655.53
2024-04-11T00:57:25.591Z,101665.50
2024-04-11T00:59:53.363Z,101665.78
2024-04-11T01:02:21.158Z,101666.78
2024-04-11T01:04:48.702Z,101668.16
2024-04-11T01:07:16.374Z,101678.00
2024-04-11T01:09:45.859Z,101674.91
2024-04-11T01:12:18.785Z,101676.66
2024-04-11T01:14:48.716Z,101669.16
2024-04-11T01:17:17.729Z,101677.38
2024-04-11T01:19:46.350Z,101662.44
2024-04-11T01:22:13.820Z,101669.16
2024-04-11T01:24:44.343Z,101668.78
2024-04-11T01:27:16.020Z,101671.97
2024-04-11T01:29:44.007Z,101663.38
2024-04-11T01:32:11.522Z,101663.41
2024-04-11T01:34:39.325Z,101659.09
2024-04-11T01:37:07.391Z,101655.09
2024-04-11T01:39:34.841Z,101653.75
2024-04-11T01:42:02.651Z,101660.25
2024-04-11T01:44:30.551Z,101657.06
2024-04-11T01:46:58.934Z,101662.00
2024-04-11T01:49:26.572Z,101662.00
2024-04-11T01:51:54.555Z,101661.59
2024-04-11T01:54:22.994Z,101653.16
2024-04-11T01:56:51.180Z,101662.25
2024-04-11T01:59:19.431Z,101662.88
2024-04-11T02:01:46.900Z,101667.41
2024-04-11T02:04:14.307Z,101667.38
2024-04-11T02:06:41.699Z,101669.16
2024-04-11T02:09:13.413Z,101681.69
2024-04-11T02:11:43.075Z,101677.56
2024-04-11T02:14:11.480Z,101674.50
2024-04-11T02:16:39.237Z,101678.91
2024-04-11T02:19:10.158Z,101677.94
2024-04-11T02:21:42.002Z,101693.94
2024-04-11T02:24:18.465Z,101683.41
2024-04-11T02:26:50.155Z,101681.28
2024-04-11T02:29:18.258Z,101687.81
2024-04-11T02:31:47.995Z,101675.81
2024-04-11T02:34:15.652Z,101683.50
2024-04-11T02:36:43.178Z,101684.31
2024-04-11T02:39:14.235Z,101684.22
2024-04-11T02:41:43.337Z,101684.38
2024-04-11T02:44:10.999Z,101687.09
2024-04-11T02:46:40.790Z,101691.91
2024-04-11T02:49:08.724Z,101689.03
2024-04-11T02:51:36.762Z,101689.88
2024-04-11T02:54:07.650Z,101697.16
2024-04-11T02:56:35.397Z,101711.31
2024-04-11T02:59:03.072Z,101713.38
2024-04-11T03:01:33.295Z,101716.81
2024-04-11T03:04:03.687Z,101719.41
2024-04-11T03:06:32.858Z,101722.81
2024-04-11T03:09:00.553Z,101724.38
2024-04-11T03:11:29.037Z,101719.75
2024-04-11T03:14:01.507Z,101725.16
2024-04-11T03:16:31.695Z,101727.00
2024-04-11T03:19:00.370Z,101734.91
2024-04-11T03:21:29.352Z,101731.03
2024-04-11T03:23:57.926Z,101739.91
2024-04-11T03:26:25.357Z,101744.38
2024-04-11T03:28:52.744Z,101748.78
2024-04-11T03:31:22.359Z,101751.38
2024-04-11T03:33:52.469Z,101755.88
2024-04-11T03:36:21.253Z,101751.91
2024-04-11T03:38:55.707Z,101741.88
2024-04-11T03:41:23.828Z,101755.28
2024-04-11T03:43:56.437Z,101749.88
2024-04-11T03:46:25.513Z,101748.81
2024-04-11T03:48:57.552Z,101745.84
2024-04-11T03:51:30.891Z,101756.97
2024-04-11T03:53:59.890Z,101766.34
2024-04-11T03:56:29.267Z,101766.81
2024-04-11T03:58:57.953Z,101759.59
2024-04-11T04:01:27.571Z,101768.88
2024-04-11T04:04:06.872Z,101766.03
2024-04-11T04:06:36.174Z,101769.47
2024-04-11T04:09:10.770Z,101772.00
2024-04-11T04:11:40.341Z,101772.91
2024-04-11T04:14:12.496Z,101774.63
2024-04-11T04:16:40.617Z,101776.47
2024-04-11T04:19:09.226Z,101774.91
2024-04-11T04:21:37.477Z,101784.66
2024-04-11T04:24:08.108Z,101783.53
2024-04-11T04:26:36.769Z,101787.13
2024-04-11T04:29:06.056Z,101787.94
2024-04-11T04:31:34.436Z,101795.06
2024-04-11T04:34:03.552Z,101798.94
2024-04-11T04:36:34.595Z,101796.88
2024-04-11T04:39:06.519Z,101804.34
2024-04-11T04:41:36.040Z,101799.66
2024-04-11T04:44:03.900Z,101809.59
2024-04-11T04:46:33.692Z,101811.06
2024-04-11T04:49:02.355Z,101812.72
2024-04-11T04:51:32.916Z,101819.94
2024-04-11T04:54:03.446Z,101825.28
2024-04-11T04:56:31.788Z,101825.03
2024-04-11T04:59:00.148Z,101823.91
2024-04-11T05:01:28.223Z,101819.56
2024-04-11T05:03:57.421Z,101827.72
2024-04-11T05:06:27.534Z,101836.22
2024-04-11T05:08:55.968Z,101842.94
2024-04-11T05:11:24.473Z,101844.75
2024-04-11T05:13:52.404Z,101852.38
2024-04-11T05:16:21.196Z,101863.19
2024-04-11T05:18:51.498Z,101858.81
2024-04-11T05:21:26.375Z,101859.78
2024-04-11T05:23:58.159Z,101874.44
2024-04-11T05:26:27.210Z,101870.00
2024-04-11T05:28:56.614Z,101871.50
2024-04-11T05:31:27.723Z,101873.44
2024-04-11T05:33:56.586Z,101870.47
2024-04-11T05:36:30.410Z,101874.97
2024-04-11T05:38:58.771Z,101879.19
2024-04-11T05:41:29.576Z,101883.13
2024-04-11T05:43:58.444Z,101879.06
2024-04-11T05:46:26.078Z,101884.84
2024-04-11T05:48:54.383Z,101887.72
2024-04-11T05:51:22.737Z,101892.34
2024-04-11T05:53:51.949Z,101891.69
2024-04-11T05:56:19.589Z,101888.88
2024-04-11T05:58:47.364Z,101900.19
2024-04-11T06:01:18.702Z,101904.53
2024-04-11T06:03:52.630Z,101911.91
2024-04-11T06:06:22.941Z,101908.81
2024-04-11T06:08:52.240Z,101909.44
2024-04-11T06:11:19.916Z,101910.22
2024-04-11T06:13:50.100Z,101916.47
2024-04-11T06:16:18.001Z,101916.69
2024-04-11T06:18:46.510Z,101929.44
2024-04-11T06:21:14.566Z,101929.16
2024-04-11T06:23:42.180Z,101937.28
2024-04-11T06:26:12.886Z,101941.78
2024-04-11T06:28:40.866Z,101946.13
2024-04-11T06:31:10.831Z,101948.00
2024-04-11T06:33:42.794Z,101949.81
2024-04-11T06:36:13.803Z,101964.00
2024-04-11T06:38:42.146Z,101953.38
2024-04-11T06:41:10.735Z,101959.56
2024-04-11T06:43:42.874Z,101964.50
2024-04-11T06:46:12.316Z,101962.81
2024-04-11T06:48:41.373Z,101959.00
2024-04-11T06:51:11.146Z,101959.88
2024-04-11T06:53:40.760Z,101966.03
2024-04-11T06:56:10.165Z,101959.28
2024-04-11T06:58:41.578Z,101968.03
2024-04-11T07:01:14.622Z,101968.63
2024-04-11T07:03:43.024Z,101970.81
2024-04-11T07:06:11.911Z,101971.34
2024-04-11T07:08:39.975Z,101980.81
2024-04-11T07:11:26.277Z,101982.06
2024-04-11T07:13:59.297Z,101978.78
2024-04-11T07:16:41.955Z,101989.06
2024-04-11T07:19:10.463Z,101977.09
2024-04-11T07:21:39.927Z,101983.03
2024-04-11T07:24:08.255Z,101983.03
2024-04-11T07:26:36.681Z,101983.56
2024-04-11T07:29:05.586Z,101987.56
2024-04-11T07:31:42.973Z,101989.63
2024-04-11T07:34:10.773Z,101989.81
2024-04-11T07:36:41.970Z,101990.38
2024-04-11T07:39:15.181Z,101994.59
2024-04-11T07:41:47.062Z,101994.06
2024-04-11T07:44:25.463Z,102001.44
2024-04-11T07:47:05.967Z,102003.81
2024-04-11T07:49:42.911Z,102012.03
2024-04-11T07:52:12.259Z,102004.78
2024-04-11T07:54:47.608Z,102009.94
2024-04-11T07:57:19.299Z,102014.53
2024-04-11T07:59:47.498Z,102001.91
2024-04-11T08:02:16.452Z,102018.22
2024-04-11T08:04:47.373Z,102018.22
2024-04-11T08:07:14.743Z,102018.09
2024-04-11T08:09:57.228Z,102022.09
2024-04-11T08:12:25.534Z,102029.91
2024-04-11T08:14:53.573Z,102024.00
2024-04-11T08:17:22.096Z,102030.28
2024-04-11T08:19:56.625Z,102037.94
2024-04-11T08:22:26.765Z,102044.63
2024-04-11T08:24:55.220Z,102035.31
2024-04-11T08:27:24.165Z,102039.13
2024-04-11T08:29:52.809Z,102034.03
2024-04-11T08:32:23.520Z,102036.06
2024-04-11T08:34:52.105Z,102035.16
2024-04-11T08:37:20.441Z,102046.59
2024-04-11T08:39:47.869Z,102037.88
2024-04-11T08:42:15.413Z,102046.00
2024-04-11T08:44:43.754Z,102050.72
2024-04-11T08:47:11.834Z,102046.63
2024-04-11T08:49:39.686Z,102041.81
2024-04-11T08:52:07.994Z,102054.41
2024-04-11T08:54:40.365Z,102054.47
2024-04-11T08:57:12.485Z,102059.47
2024-04-11T08:59:42.516Z,102047.63
2024-04-11T09:02:11.582Z,102057.84
2024-04-11T09:04:38.961Z,102058.97
2024-04-11T09:07:06.340Z,102054.28
2024-04-11T09:09:33.695Z,102055.41
2024-04-11T09:12:02.210Z,102058.38
2024-04-11T09:14:30.496Z,102055.72
2024-04-11T09:17:06.553Z,102059.72
2024-04-11T09:19:40.880Z,102055.44
2024-04-11T09:22:23.309Z,102055.81
2024-04-11T09:24:52.107Z,102055.81
2024-04-11T09:27:21.905Z,102050.41
2024-04-11T09:29:49.803Z,102045.28
2024-04-11T09:32:22.914Z,102049.88
2024-04-11T09:34:54.662Z,102045.91
2024-04-11T09:37:25.044Z,102062.44
2024-04-11T09:39:58.777Z,102062.31
2024-04-11T09:42:27.947Z,102069.00
2024-04-11T09:44:56.969Z,102063.78
2024-04-11T09:47:29.392Z,102064.94
2024-04-11T09:50:01.265Z,102057.53
2024-04-11T09:52:31.992Z,102057.53
2024-04-11T09:55:05.844Z,102064.22
2024-04-11T09:57:38.601Z,102069.34
2024-04-11T10:00:24.430Z,102060.84
2024-04-11T10:02:55.994Z,102061.00
2024-04-11T10:05:27.191Z,102055.06
2024-04-11T10:08:01.344Z,102053.22
2024-04-11T10:10:31.108Z,102060.94
2024-04-11T10:13:01.780Z,102059.09
2024-04-11T10:15:35.936Z,102056.91
2024-04-11T10:18:06.850Z,102058.19
2024-04-11T10:20:39.344Z,102055.03
2024-04-11T10:23:11.303Z,102052.50
2024-04-11T10:25:39.621Z,102054.28
2024-04-11T10:28:16.170Z,102045.28
2024-04-11T10:30:43.923Z,102048.72
2024-04-11T10:33:14.936Z,102041.91
2024-04-11T10:35:42.815Z,102044.19
2024-04-11T10:38:14.402Z,102048.06
2024-04-11T10:40:46.111Z,102040.28
2024-04-11T10:43:15.229Z,102047.00
2024-04-11T10:45:42.623Z,102048.84
2024-04-11T10:48:10.613Z,102044.53
2024-04-11T10:50:38.037Z,102042.75
2024-04-11T10:53:05.558Z,102053.19
2024-04-11T10:55:37.561Z,102031.50
2024-04-11T10:58:14.896Z,102042.09
2024-04-11T11:01:02.073Z,102036.50
2024-04-11T11:06:17.207Z,102039.59
2024-04-11T11:08:44.826Z,102030.66
2024-04-11T11:11:15.777Z,102031.03
2024-04-11T11:13:44.061Z,102031.34
2024-04-11T11:16:17.762Z,102032.88
2024-04-11T11:18:45.342Z,102021.03
2024-04-11T11:21:17.811Z,102023.47
2024-04-11T11:23:48.149Z,102036.50
2024-04-11T11:26:23.787Z,102027.50
2024-04-11T11:28:54.097Z,102014.22
2024-04-11T11:31:24.182Z,102015.84
2024-04-11T11:33:51.682Z,102008.63
2024-04-11T11:36:19.048Z,102003.47
2024-04-11T11:38:46.515Z,102013.56
2024-04-11T11:41:17.168Z,102021.72
2024-04-11T11:43:45.479Z,102013.38
2024-04-11T11:46:28.676Z,102006.94
2024-04-11T11:48:56.219Z,102002.56
2024-04-11T11:51:30.125Z,102013.84
2024-04-11T11:54:13.983Z,102003.78
2024-04-11T11:56:43.374Z,102009.56
2024-04-11T11:59:10.787Z,102012.75
2024-04-11T12:01:44.721Z,102009.97
2024-04-11T12:04:12.637Z,102006.25
2024-04-11T12:06:45.794Z,101997.94
2024-04-11T12:09:13.304Z,101996.16
2024-04-11T12:12:00.273Z,102003.59
2024-04-11T12:14:31.803Z,101995.47
2024-04-11T12:16:59.966Z,102000.59
2024-04-11T12:19:30.026Z,101986.81
2024-04-11T12:21:57.939Z,101990.56
2024-04-11T12:24:25.342Z,101984.91
2024-04-11T12:26:54.007Z,101978.66
2024-04-11T12:29:21.405Z,101979.00
2024-04-11T12:31:52.269Z,101979.75
2024-04-11T12:34:21.212Z,101987.41
2024-04-11T12:37:00.890Z,101982.22
2024-04-11T12:39:35.197Z,101978.38
2024-04-11T12:42:03.234Z,101968.38
2024-04-11T12:44:37.468Z,101972.38
2024-04-11T12:47:15.944Z,101964.56
2024-04-11T12:49:50.175Z,101972.06
2024-04-11T12:52:24.524Z,101964.78
2024-04-11T12:54:53.960Z,101963.00
2024-04-11T12:57:29.854Z,101958.06
2024-04-11T12:59:57.799Z,101963.44
2024-04-11T13:02:25.317Z,101958.34
2024-04-11T13:04:56.582Z,101952.31
2024-04-11T13:07:24.067Z,101955.63
2024-04-11T13:10:09.254Z,101953.31
2024-04-11T13:12:37.598Z,101947.50
2024-04-11T13:15:13.142Z,101952.53
2024-04-11T13:17:46.361Z,101946.63
2024-04-11T13:20:14.723Z,101952.34
2024-04-11T13:22:43.460Z,101952.13
2024-04-11T13:25:20.230Z,101950.78
2024-04-11T13:27:48.087Z,101945.78
2024-04-11T13:30:15.980Z,101932.94
2024-04-11T13:32:49.974Z,101944.03
2024-04-11T13:35:36.170Z,101947.75
2024-04-11T13:38:15.412Z,101943.72
2024-04-11T13:41:16.628Z,101934.88
2024-04-11T13:43:45.073Z,101941.72
2024-04-11T13:46:13.624Z,101940.53
2024-04-11T13:48:49.579Z,101931.94
2024-04-11T13:51:26.280Z,101937.69
2024-04-11T13:53:58.943Z,101925.06
2024-04-11T13:56:31.245Z,101927.72
2024-04-11T13:59:09.319Z,101937.22
2024-04-11T14:01:52.597Z,101937.50
2024-04-11T14:04:40.340Z,101932.09
2024-04-11T14:07:08.914Z,101935.53
2024-04-11T14:09:40.950Z,101939.88
2024-04-11T14:12:11.975Z,101931.47
2024-04-11T14:14:40.106Z,101940.25
2024-04-11T14:17:15.075Z,101941.19
2024-04-11T14:19:53.912Z,101926.72
2024-04-11T14:22:21.685Z,101935.16
2024-04-11T14:25:08.834Z,101930.06
2024-04-11T14:27:40.042Z,101930.69
2024-04-11T14:30:07.986Z,101925.50
2024-04-11T14:32:53.980Z,101925.16
2024-04-11T14:35:41.169Z,101923.78
2024-04-11T14:38:08.945Z,101917.78
2024-04-11T14:40:37.027Z,101913.94
2024-04-11T14:43:22.372Z,101917.06
2024-04-11T14:45:49.889Z,101918.31
2024-04-11T14:48:20.896Z,101912.28
2024-04-11T14:50:50.405Z,101907.88
2024-04-11T14:53:23.781Z,101911.53
2024-04-11T14:55:51.694Z,101902.25
2024-04-11T14:58:21.043Z,101904.75
2024-04-11T15:00:48.931Z,101903.91
2024-04-11T15:03:20.382Z,101910.16
2024-04-11T15:05:51.906Z,101906.81
2024-04-11T15:08:24.327Z,101908.19
2024-04-11T15:10:52.648Z,101905.38
2024-04-11T15:13:22.088Z,101900.00
2024-04-11T15:16:09.400Z,101894.78
2024-04-11T15:18:43.252Z,101888.13
2024-04-11T15:21:17.057Z,101902.06
2024-04-11T15:23:45.898Z,101892.84
2024-04-11T15:26:13.863Z,101886.16
2024-04-11T15:28:46.294Z,101899.13
2024-04-11T15:31:16.509Z,101885.41
2024-04-11T15:33:55.715Z,101881.72
2024-04-11T15:36:44.948Z,101877.75
2024-04-11T15:39:17.566Z,101873.31
2024-04-11T15:41:46.954Z,101870.47
2024-04-11T15:44:16.511Z,101881.59
2024-04-11T15:46:43.837Z,101873.69
2024-04-11T15:49:13.577Z,101877.28
2024-04-11T15:51:48.706Z,101875.19
2024-04-11T15:54:31.832Z,101878.00
2024-04-11T15:56:59.265Z,101879.13
2024-04-11T15:59:28.792Z,101871.13
2024-04-11T16:01:59.051Z,101869.41
2024-04-11T16:04:26.514Z,101871.69
2024-04-11T16:07:00.067Z,101872.69
2024-04-11T16:09:47.913Z,101880.09
2024-04-11T16:12:15.326Z,101880.72
2024-04-11T16:14:48.356Z,101884.47
2024-04-11T16:17:16.128Z,101885.97
2024-04-11T16:19:44.102Z,101885.22
2024-04-11T16:22:12.747Z,101880.81
2024-04-11T16:24:53.766Z,101882.59
2024-04-11T16:27:35.815Z,101889.03
2024-04-11T16:30:13.108Z,101881.78
2024-04-11T16:32:41.872Z,101878.78
2024-04-11T16:35:09.635Z,101880.84
2024-04-11T16:37:37.226Z,101882.50
2024-04-11T16:40:05.337Z,101882.47
2024-04-11T16:42:36.323Z,101883.75
2024-04-11T16:45:04.974Z,101889.06
2024-04-11T16:47:36.277Z,101888.75
2024-04-11T16:50:04.687Z,101887.53
2024-04-11T16:52:32.891Z,101882.88
2024-04-11T16:55:03.790Z,101888.28
2024-04-11T16:57:33.891Z,101890.59
2024-04-11T17:00:02.198Z,101886.75
2024-04-11T17:02:30.147Z,101883.22
2024-04-11T17:04:57.563Z,101885.03
2024-04-11T17:07:28.724Z,101892.13
2024-04-11T17:09:56.434Z,101893.31
2024-04-11T17:12:24.448Z,101892.34
2024-04-11T17:14:55.425Z,101887.00
2024-04-11T17:17:30.480Z,101888.31
2024-04-11T17:20:17.465Z,101887.47
2024-04-11T17:22:54.375Z,101886.38
2024-04-11T17:25:28.226Z,101885.41
2024-04-11T17:27:58.640Z,101892.88
2024-04-11T17:30:39.903Z,101886.63
2024-04-11T17:33:42.813Z,101895.16
2024-04-11T17:36:23.367Z,101897.44
2024-04-11T17:39:02.125Z,101899.41
2024-04-11T17:41:30.715Z,101899.75
2024-04-11T17:43:58.307Z,101893.28
2024-04-11T17:46:28.818Z,101902.63
2024-04-11T17:49:17.671Z,101897.47
2024-04-11T17:51:47.817Z,101896.78
2024-04-11T17:54:19.883Z,101898.59
2024-04-11T17:56:47.693Z,101902.06
2024-04-11T17:59:17.743Z,101898.78
2024-04-11T18:01:45.636Z,101901.28
2024-04-11T18:04:18.970Z,101897.81
2024-04-11T18:06:48.634Z,101900.59
2024-04-11T18:09:16.220Z,101914.06
2024-04-11T18:11:58.159Z,101916.09
2024-04-11T18:14:35.497Z,101917.22
2024-04-11T18:17:12.079Z,101915.56
2024-04-11T18:19:48.587Z,101915.09
2024-04-11T18:22:15.946Z,101912.06
2024-04-11T18:24:45.780Z,101923.59
2024-04-11T18:27:13.543Z,101919.00
2024-04-11T18:29:44.065Z,101922.88
2024-04-11T18:32:14.980Z,101932.31
2024-04-11T18:34:47.381Z,101929.72
2024-04-11T18:37:15.181Z,101937.63
2024-04-11T18:39:53.461Z,101940.16
2024-04-11T18:42:23.023Z,101940.22
2024-04-11T18:45:01.391Z,101943.03
2024-04-11T18:47:44.428Z,101940.59
2024-04-11T18:50:24.618Z,101946.25
2024-04-11T18:52:55.126Z,101948.47
2024-04-11T18:55:29.734Z,101951.09
2024-04-11T18:58:00.613Z,101947.63
2024-04-11T19:00:31.413Z,101948.47
2024-04-11T19:02:59.458Z,101954.56
2024-04-11T19:05:31.253Z,101952.44
2024-04-11T19:08:03.318Z,101963.38
2024-04-11T19:10:30.822Z,101953.22
2024-04-11T19:12:58.428Z,101964.00
2024-04-11T19:15:28.449Z,101962.91
2024-04-11T19:18:00.486Z,101966.31
2024-04-11T19:20:32.260Z,101968.59
2024-04-11T19:23:06.085Z,101963.69
2024-04-11T19:25:37.612Z,101969.47
2024-04-11T19:28:15.514Z,101971.75
2024-04-11T19:30:44.775Z,101966.47
2024-04-11T19:33:23.319Z,101969.94
2024-04-11T19:35:52.308Z,101969.25
2024-04-11T19:38:31.678Z,101983.78
2024-04-11T19:41:01.846Z,101978.06
2024-04-11T19:43:32.950Z,101981.00
2024-04-11T19:46:08.061Z,101982.78
2024-04-11T19:48:36.198Z,101989.88
2024-04-11T19:51:15.620Z,101986.50
2024-04-11T19:53:47.839Z,101984.16
2024-04-11T19:56:25.553Z,101983.78
2024-04-11T19:58:58.970Z,101990.22
2024-04-11T20:01:42.283Z,101987.63
2024-04-11T20:04:21.234Z,101990.91
2024-04-11T20:07:04.575Z,101989.28
2024-04-11T20:09:33.459Z,101993.19
2024-04-11T20:12:15.288Z,102000.22
2024-04-11T20:14:46.586Z,101999.53
2024-04-11T20:17:31.371Z,102001.53
2024-04-11T20:20:04.323Z,102001.38
2024-04-11T20:22:40.074Z,102008.81
2024-04-11T20:25:09.625Z,102003.09
2024-04-11T20:27:39.725Z,102009.06
2024-04-11T20:30:15.979Z,102004.91
2024-04-11T20:32:49.551Z,102014.78
2024-04-11T20:35:27.838Z,102015.84
2024-04-11T20:37:59.260Z,102016.34
2024-04-11T20:40:34.615Z,102012.44
2024-04-11T20:43:03.114Z,102017.16
2024-04-11T20:45:31.419Z,102019.88
2024-04-11T20:48:19.000Z,102007.66
2024-04-11T20:51:08.647Z,101998.81
2024-04-11T20:53:54.533Z,102021.00
2024-04-11T20:56:40.512Z,102019.19
2024-04-11T20:59:26.414Z,102008.94
2024-04-11T21:02:12.386Z,102004.88
2024-04-11T21:04:59.499Z,102012.09
2024-04-11T21:07:45.579Z,102017.94
2024-04-11T21:10:31.454Z,102018.28
2024-04-11T21:13:17.501Z,102021.81
2024-04-11T21:16:09.573Z,102025.56
2024-04-11T21:18:55.961Z,102026.97
2024-04-11T21:21:42.059Z,102027.78
2024-04-11T21:24:28.073Z,102035.97
2024-04-11T21:27:13.889Z,102035.72
2024-04-11T21:29:59.709Z,102030.22
2024-04-11T21:33:02.279Z,102032.13
2024-04-11T21:35:34.731Z,102036.28
2024-04-11T21:38:03.679Z,102038.72
2024-04-11T21:40:33.284Z,102029.50
2024-04-11T21:43:00.969Z,102030.44
2024-04-11T21:45:28.824Z,102046.72
2024-04-11T21:48:00.323Z,102044.31
2024-04-11T21:50:37.759Z,102049.53
2024-04-11T21:53:18.624Z,102048.66
2024-04-11T21:55:48.557Z,102049.56
2024-04-11T21:58:20.253Z,102042.44
2024-04-11T22:00:51.814Z,102046.88
2024-04-11T22:03:25.487Z,102046.06
2024-04-11T22:05:54.323Z,102047.16
2024-04-11T22:08:22.646Z,102052.16
2024-04-11T22:10:50.141Z,102048.22
2024-04-11T22:13:19.481Z,102047.16
2024-04-11T22:15:54.797Z,102043.94
2024-04-11T22:18:32.268Z,102050.72
2024-04-11T22:21:24.765Z,102057.81
2024-04-11T22:23:53.601Z,102057.59
2024-04-11T22:26:20.938Z,102053.69
2024-04-11T22:28:48.420Z,102052.69
2024-04-11T22:31:16.314Z,102060.47
2024-04-11T22:33:46.771Z,102059.81
2024-04-11T22:36:26.379Z,102065.75
2024-04-11T22:38:55.069Z,102066.50
2024-04-11T22:41:23.518Z,102061.94
2024-04-11T22:43:54.475Z,102054.72
2024-04-11T22:46:33.188Z,102055.53
2024-04-11T22:49:22.857Z,102057.25
2024-04-11T22:51:56.201Z,102058.88
2024-04-11T22:54:24.163Z,102054.63
2024-04-11T22:56:52.516Z,102058.25
2024-04-11T22:59:36.475Z,102056.78
2024-04-11T23:02:19.669Z,102054.34
2024-04-11T23:05:00.823Z,102051.44
2024-04-11T23:07:35.898Z,102048.66
2024-04-11T23:10:19.843Z,102058.19
2024-04-11T23:12:53.122Z,102052.22
2024-04-11T23:15:21.865Z,102049.38
2024-04-11T23:18:19.447Z,102053.97
2024-04-11T23:21:09.361Z,102058.22
2024-04-11T23:23:40.552Z,102058.06
2024-04-11T23:26:15.684Z,102051.84
2024-04-11T23:28:48.385Z,102058.31
2024-04-11T23:31:17.058Z,102056.13
2024-04-11T23:33:57.492Z,102059.94
2024-04-11T23:36:27.670Z,102058.81
2024-04-11T23:39:00.392Z,102060.69
2024-04-11T23:41:35.605Z,102061.84
2024-04-11T23:44:04.729Z,102060.78
2024-04-11T23:46:34.234Z,102062.38
2024-04-11T23:49:07.518Z,102057.06
2024-04-11T23:51:47.711Z,102055.91
2024-04-11T23:54:21.938Z,102054.59
2024-04-11T23:57:02.540Z,102049.25
2024-04-11T23:59:42.419Z,102060.91
